Time;durP1;ratioP1;P1;durP2;ratioP2;P2;SDS_P1;SDS_P2;PMS_P1;PMS_P2;Temp;Humidity;BMP_temperature;BMP_pressure;BME280_temperature;BME280_humidity;BME280_pressure;Samples;Min_cycle;Max_cycle;Signal;HPM_P1;HPM_P2
2023/09/21 00:01:52;;;;;;;31.60;13.95;;;;;;;-143.21;80.23;71844.16;5027656;28;20214;-79
2023/09/21 00:04:20;;;;;;;20.95;13.45;;;;;;;-143.21;80.87;71856.03;5025370;28;20202;-79
2023/09/21 00:06:49;;;;;;;30.88;13.40;;;;;;;-143.21;81.52;71856.03;5027864;28;20698;-80
2023/09/21 00:09:16;;;;;;;25.10;13.60;;;;;;;-143.21;81.53;71848.09;5032184;28;20210;-81
2023/09/21 00:11:42;;;;;;;28.25;13.73;;;;;;;-143.21;81.26;71854.06;5019374;28;20708;-81
2023/09/21 00:14:11;;;;;;;25.13;12.57;;;;;;;-143.21;81.66;71860.00;5012629;28;21284;-81
2023/09/21 00:16:40;;;;;;;26.77;13.90;;;;;;;-143.21;81.59;71842.16;5021919;28;20210;-80
2023/09/21 00:19:10;;;;;;;24.35;14.50;;;;;;;-143.21;81.15;71828.28;5022109;28;20213;-81
2023/09/21 00:21:37;;;;;;;28.17;14.73;;;;;;;-143.21;80.24;71828.28;5020440;28;20219;-81
2023/09/21 00:24:05;;;;;;;21.67;11.98;;;;;;;-143.21;80.98;71844.16;5013755;28;20199;-81
2023/09/21 00:26:34;;;;;;;27.63;13.23;;;;;;;-143.21;82.00;71856.03;5028052;28;20252;-81
2023/09/21 00:29:03;;;;;;;25.30;13.80;;;;;;;-143.21;82.87;71860.00;5029181;28;20301;-81
2023/09/21 00:31:31;;;;;;;22.05;14.05;;;;;;;-143.21;83.32;71867.94;5020988;28;20295;-81
2023/09/21 00:33:58;;;;;;;26.90;13.55;;;;;;;-143.21;83.42;71865.97;5028438;28;20231;-81
2023/09/21 00:36:26;;;;;;;20.92;13.00;;;;;;;-143.21;83.45;71867.94;5022770;28;20207;-80
2023/09/21 00:38:55;;;;;;;23.95;12.65;;;;;;;-143.21;83.64;71863.97;5020363;28;20207;-80
2023/09/21 00:41:21;;;;;;;24.60;11.55;;;;;;;-143.21;83.04;71860.00;5021164;28;20685;-80
2023/09/21 00:43:48;;;;;;;19.42;11.60;;;;;;;-143.21;82.73;71856.03;5020877;28;20683;-80
2023/09/21 00:46:15;;;;;;;18.90;11.60;;;;;;;-143.21;82.26;71867.94;5024541;28;20634;-80
2023/09/21 00:48:44;;;;;;;22.40;12.30;;;;;;;-143.21;83.03;71883.81;5018136;28;20221;-81
2023/09/21 00:51:12;;;;;;;30.40;12.85;;;;;;;-143.21;83.25;71885.78;5017241;28;20227;-81
2023/09/21 00:53:44;;;;;;;21.67;12.05;;;;;;;-143.21;83.29;71885.78;5014684;28;20223;-81
2023/09/21 00:56:13;;;;;;;23.10;12.15;;;;;;;-143.21;83.53;71883.81;5024839;28;20298;-81
2023/09/21 00:58:44;;;;;;;19.75;11.00;;;;;;;-143.21;83.91;71873.88;5027502;28;20202;-81
2023/09/21 01:01:18;;;;;;;19.92;10.85;;;;;;;-143.21;84.02;71873.88;5020700;28;20210;-81
2023/09/21 01:03:48;;;;;;;21.35;11.00;;;;;;;-143.21;84.65;71863.97;5017140;28;20243;-82
2023/09/21 01:06:18;;;;;;;17.50;11.23;;;;;;;-143.21;84.55;71854.06;5024433;28;20238;-81
2023/09/21 01:08:45;;;;;;;18.67;10.93;;;;;;;-143.21;84.99;71844.16;5024027;28;20222;-81
2023/09/21 01:11:13;;;;;;;21.80;11.93;;;;;;;-143.21;85.22;71836.22;5020828;28;20230;-81
2023/09/21 01:13:41;;;;;;;20.63;11.18;;;;;;;-143.21;85.12;71830.25;5023606;28;21020;-81
2023/09/21 01:16:10;;;;;;;23.60;12.02;;;;;;;-143.21;85.15;71830.25;5020562;28;20210;-80
2023/09/21 01:18:40;;;;;;;20.63;10.90;;;;;;;-143.21;84.99;71824.31;5025607;28;20203;-80
2023/09/21 01:21:13;;;;;;;21.02;11.30;;;;;;;-143.21;84.38;71812.41;5021805;28;20612;-80
2023/09/21 01:23:45;;;;;;;22.85;11.93;;;;;;;-143.21;84.56;71812.41;5020518;28;20216;-80
2023/09/21 01:26:13;;;;;;;21.48;11.48;;;;;;;-143.21;84.86;71808.44;5026105;28;20211;-80
2023/09/21 01:28:40;;;;;;;21.77;11.20;;;;;;;-143.21;84.95;71800.53;5019360;28;20273;-79
2023/09/21 01:31:12;;;;;;;25.98;11.57;;;;;;;-143.21;84.44;71800.53;5026199;28;20654;-79
2023/09/21 01:33:39;;;;;;;17.08;10.68;;;;;;;-143.21;84.70;71804.47;5024261;28;20230;-79
2023/09/21 01:36:09;;;;;;;24.23;12.10;;;;;;;-143.21;84.88;71800.53;5023579;28;20252;-80
2023/09/21 01:38:35;;;;;;;17.65;10.65;;;;;;;-143.21;84.78;71788.63;5018753;28;20207;-79
2023/09/21 01:41:06;;;;;;;28.15;12.07;;;;;;;-143.21;84.90;71792.59;5010934;28;20207;-79
2023/09/21 01:43:33;;;;;;;24.08;11.23;;;;;;;-143.21;85.04;71798.53;5023593;28;20209;-79
2023/09/21 01:46:00;;;;;;;24.75;11.60;;;;;;;-143.21;85.41;71798.53;5024588;28;20257;-79
2023/09/21 01:48:27;;;;;;;22.27;11.60;;;;;;;-143.21;85.77;71788.63;5015898;28;20206;-79
2023/09/21 01:50:57;;;;;;;24.77;12.23;;;;;;;-143.21;85.28;71782.69;5018849;28;20292;-79
2023/09/21 01:53:24;;;;;;;20.23;12.00;;;;;;;-143.21;85.12;71778.72;5020033;28;20550;-78
2023/09/21 01:55:51;;;;;;;25.75;12.73;;;;;;;-143.21;84.62;71778.72;5026342;28;20219;-77
2023/09/21 01:58:23;;;;;;;18.98;11.55;;;;;;;-143.21;84.06;71780.69;5026185;28;20660;-77
2023/09/21 02:00:50;;;;;;;19.88;12.20;;;;;;;-143.21;84.63;71788.63;5019201;28;20206;-79
2023/09/21 02:03:19;;;;;;;23.70;12.40;;;;;;;-143.21;85.14;71792.59;5025859;28;20241;-77
2023/09/21 02:05:47;;;;;;;21.83;12.65;;;;;;;-143.21;85.92;71796.56;5022427;28;20203;-79
2023/09/21 02:08:15;;;;;;;18.23;12.18;;;;;;;-143.21;86.59;71790.59;5022507;28;20253;-78
2023/09/21 02:10:43;;;;;;;18.27;11.05;;;;;;;-143.21;86.85;71782.69;5027859;28;20225;-78
2023/09/21 02:13:09;;;;;;;26.30;12.13;;;;;;;-143.21;87.22;71776.72;5023247;28;20213;-78
2023/09/21 02:15:39;;;;;;;25.33;12.98;;;;;;;-143.21;87.09;71770.78;5026920;28;20230;-78
2023/09/21 02:18:07;;;;;;;21.67;12.75;;;;;;;-143.21;87.06;71768.78;5025041;28;20225;-79
2023/09/21 02:20:38;;;;;;;23.65;12.82;;;;;;;-143.21;86.79;71762.84;5021462;28;20209;-79
2023/09/21 02:23:06;;;;;;;26.33;12.73;;;;;;;-143.21;87.01;71760.88;5024994;28;20202;-78
2023/09/21 02:25:35;;;;;;;23.67;12.70;;;;;;;-143.21;87.12;71764.81;5028918;28;20261;-78
2023/09/21 02:28:08;;;;;;;20.42;12.55;;;;;;;-143.21;87.42;71760.88;5021959;28;20199;-78
2023/09/21 02:30:36;;;;;;;19.70;13.55;;;;;;;-143.21;87.15;71760.88;5028556;28;20199;-78
2023/09/21 02:33:05;;;;;;;21.95;12.77;;;;;;;-143.21;87.17;71766.81;5020557;28;20206;-79
2023/09/21 02:35:34;;;;;;;20.45;13.27;;;;;;;-143.21;87.31;71768.78;5019165;28;20223;-78
2023/09/21 02:38:03;;;;;;;23.52;12.85;;;;;;;-143.21;86.70;71760.88;5018194;28;20635;-78
2023/09/21 02:40:30;;;;;;;26.75;12.60;;;;;;;-143.21;86.43;71764.81;5024833;28;20199;-78
2023/09/21 02:42:57;;;;;;;19.48;12.65;;;;;;;-143.21;86.13;71762.84;5021455;28;20289;-78
2023/09/21 02:45:25;;;;;;;23.10;13.85;;;;;;;-143.21;86.59;71770.78;5024196;28;20261;-78
2023/09/21 02:47:54;;;;;;;23.30;12.25;;;;;;;-143.21;86.92;71766.81;5018546;28;20206;-79
2023/09/21 02:50:25;;;;;;;23.88;11.85;;;;;;;-143.21;86.93;71764.81;5021513;28;20265;-78
2023/09/21 02:52:55;;;;;;;22.08;11.05;;;;;;;-143.21;86.77;71774.75;5024824;28;20686;-78
2023/09/21 02:55:23;;;;;;;22.00;11.48;;;;;;;-143.21;86.79;71776.72;5020970;28;20266;-80
2023/09/21 02:57:55;;;;;;;23.48;12.23;;;;;;;-143.21;86.53;71768.78;5021125;28;20198;-80
2023/09/21 03:00:27;;;;;;;23.50;11.60;;;;;;;-143.21;86.43;71768.78;5024345;28;20229;-80
2023/09/21 03:02:56;;;;;;;20.65;12.05;;;;;;;-143.21;86.14;71782.69;5020566;28;20316;-80
2023/09/21 03:05:26;;;;;;;22.92;12.88;;;;;;;-143.21;86.37;71782.69;5019940;28;20203;-79
2023/09/21 03:07:54;;;;;;;25.25;12.80;;;;;;;-143.21;86.63;71792.59;5020743;28;20289;-79
2023/09/21 03:10:21;;;;;;;18.17;12.20;;;;;;;-143.21;86.64;71786.63;5020358;28;20290;-79
2023/09/21 03:12:49;;;;;;;28.08;13.73;;;;;;;-143.21;86.67;71792.59;5014773;28;20203;-81
2023/09/21 03:15:19;;;;;;;27.10;12.77;;;;;;;-143.21;86.37;71796.56;5014671;28;20230;-80
2023/09/21 03:17:46;;;;;;;18.88;12.40;;;;;;;-143.21;86.82;71804.47;5024006;28;20288;-81
2023/09/21 03:20:28;;;;;;;24.10;13.02;;;;;;;-143.21;86.63;71810.44;5014720;28;20827;-80
2023/09/21 03:22:57;;;;;;;23.88;13.15;;;;;;;-143.21;85.99;71808.44;5010415;28;20214;-80
2023/09/21 03:25:28;;;;;;;20.20;13.07;;;;;;;-143.21;85.78;71804.47;5016889;28;20203;-80
2023/09/21 03:27:56;;;;;;;24.75;13.13;;;;;;;-143.21;85.68;71808.44;5031299;28;20293;-81
2023/09/21 03:30:24;;;;;;;19.27;13.43;;;;;;;-143.21;85.59;71810.44;5030540;28;20237;-81
2023/09/21 03:32:51;;;;;;;23.33;13.40;;;;;;;-143.21;85.73;71822.34;5017792;28;20257;-81
2023/09/21 03:35:18;;;;;;;28.48;13.40;;;;;;;-143.21;86.12;71828.28;5032089;28;20275;-82
2023/09/21 03:37:47;;;;;;;26.98;13.93;;;;;;;-143.21;86.64;71838.19;5030620;28;20219;-80
2023/09/21 03:40:17;;;;;;;25.27;14.45;;;;;;;-143.21;87.32;71834.22;5024119;28;20233;-82
2023/09/21 03:42:44;;;;;;;28.80;13.80;;;;;;;-143.21;87.19;71830.25;5029758;28;20252;-81
2023/09/21 03:45:15;;;;;;;25.90;14.80;;;;;;;-143.21;87.43;71828.28;5021756;28;20245;-82
2023/09/21 03:47:42;;;;;;;22.55;14.18;;;;;;;-143.21;87.90;71838.19;5017319;28;20206;-80
2023/09/21 03:50:12;;;;;;;27.40;14.07;;;;;;;-143.21;88.06;71838.19;5018910;28;20571;-81
2023/09/21 03:52:40;;;;;;;24.05;14.27;;;;;;;-143.21;87.73;71828.28;5027987;28;20210;-80
2023/09/21 03:55:10;;;;;;;25.15;13.90;;;;;;;-143.21;87.37;71826.28;5021171;28;20258;-80
2023/09/21 03:57:38;;;;;;;26.67;14.27;;;;;;;-143.21;87.27;71824.31;5024237;28;21059;-80
2023/09/21 04:00:17;;;;;;;28.67;13.73;;;;;;;-143.21;87.33;71836.22;5031573;28;20289;-80
2023/09/21 04:02:46;;;;;;;28.40;14.52;;;;;;;-143.21;86.97;71830.25;5032361;28;20239;-81
2023/09/21 04:05:18;;;;;;;24.00;13.02;;;;;;;-143.21;87.17;71832.25;5029967;28;20253;-80
2023/09/21 04:07:45;;;;;;;21.35;13.43;;;;;;;-143.21;87.40;71846.13;5025784;28;20211;-81
2023/09/21 04:10:12;;;;;;;22.90;13.68;;;;;;;-143.21;87.43;71838.19;5026404;28;20223;-81
2023/09/21 04:12:40;;;;;;;25.05;14.20;;;;;;;-143.21;87.39;71840.19;5029723;28;20202;-80
2023/09/21 04:15:08;;;;;;;17.85;12.98;;;;;;;-143.21;87.56;71838.19;5021170;28;20702;-80
2023/09/21 04:17:36;;;;;;;26.42;12.82;;;;;;;-143.21;87.64;71844.16;5032465;28;20226;-81
2023/09/21 04:20:09;;;;;;;30.02;13.77;;;;;;;-143.21;87.72;71844.16;5033738;28;20218;-79
2023/09/21 04:22:41;;;;;;;26.08;14.27;;;;;;;-143.21;87.64;71844.16;5031475;28;20264;-79
2023/09/21 04:25:09;;;;;;;26.67;13.77;;;;;;;-143.21;87.41;71836.22;5030571;28;20211;-79
2023/09/21 04:27:39;;;;;;;22.15;13.38;;;;;;;-143.21;87.24;71840.19;5020305;28;20234;-79
2023/09/21 04:30:09;;;;;;;26.23;14.27;;;;;;;-143.21;87.40;71848.09;5027110;28;20222;-78
2023/09/21 04:32:38;;;;;;;24.88;13.68;;;;;;;-143.21;87.67;71844.16;5020522;28;20202;-78
2023/09/21 04:35:08;;;;;;;33.75;14.20;;;;;;;-143.21;87.48;71840.19;5025015;28;20309;-78
2023/09/21 04:37:38;;;;;;;36.17;14.65;;;;;;;-143.21;87.52;71842.16;5030099;28;20234;-89
2023/09/21 04:40:09;;;;;;;24.10;13.55;;;;;;;-143.21;87.66;71840.19;5025418;28;20195;-82
2023/09/21 04:42:39;;;;;;;34.65;13.85;;;;;;;-143.21;87.77;71840.19;5014450;28;20203;-83
2023/09/21 04:45:10;;;;;;;30.45;14.57;;;;;;;-143.21;87.36;71826.28;5019741;28;20218;-83
2023/09/21 04:47:38;;;;;;;35.33;15.13;;;;;;;-143.21;86.80;71832.25;5025213;28;20300;-83
2023/09/21 04:50:06;;;;;;;26.75;14.35;;;;;;;-143.21;86.75;71842.16;5029930;28;20198;-83
2023/09/21 04:52:34;;;;;;;36.50;14.15;;;;;;;-143.21;87.35;71854.06;5026262;28;20272;-84
2023/09/21 04:55:04;;;;;;;33.38;14.50;;;;;;;-143.21;87.97;71869.91;5020116;28;20277;-82
2023/09/21 04:57:31;;;;;;;38.25;15.68;;;;;;;-143.21;88.74;71889.75;5028399;28;20260;-82
2023/09/21 04:59:58;;;;;;;35.33;15.57;;;;;;;-143.21;89.24;71889.75;5027118;28;20226;-81
2023/09/21 05:02:27;;;;;;;34.78;15.32;;;;;;;-143.21;90.41;71917.50;5021301;28;20230;-81
2023/09/21 05:04:54;;;;;;;34.53;16.77;;;;;;;-143.21;91.22;71921.47;5021671;28;20547;-82
2023/09/21 05:07:21;;;;;;;32.50;16.75;;;;;;;-143.21;92.13;71917.50;5027728;28;20201;-84
2023/09/21 05:09:48;;;;;;;33.58;16.45;;;;;;;-143.21;92.23;71905.63;5027784;28;20619;-84
2023/09/21 05:12:21;;;;;;;36.33;16.58;;;;;;;-143.21;92.18;71899.66;5013521;28;20200;-84
2023/09/21 05:14:51;;;;;;;28.17;15.90;;;;;;;-143.21;91.46;71879.84;5020679;28;20216;-85
2023/09/21 05:17:18;;;;;;;36.17;16.23;;;;;;;-143.21;90.55;71869.91;5024117;28;20203;-85
2023/09/21 05:19:52;;;;;;;30.27;15.05;;;;;;;-143.21;90.21;71863.97;5022799;28;20678;-84
2023/09/21 05:22:18;;;;;;;32.88;14.73;;;;;;;-143.21;88.79;71852.06;5024447;28;20191;-84
2023/09/21 05:24:45;;;;;;;30.88;15.00;;;;;;;-143.21;88.31;71844.16;5023768;28;20219;-84
2023/09/21 05:27:12;;;;;;;40.05;15.10;;;;;;;-143.21;88.33;71852.06;5020010;28;20211;-84
2023/09/21 05:29:40;;;;;;;26.77;15.23;;;;;;;-143.21;88.58;71846.13;5020727;28;20195;-84
2023/09/21 05:32:07;;;;;;;27.40;15.25;;;;;;;-143.21;89.16;71850.09;5025571;28;20210;-83
2023/09/21 05:34:34;;;;;;;33.10;15.55;;;;;;;-143.21;88.92;71846.13;5015113;28;20200;-85
2023/09/21 05:37:02;;;;;;;31.70;15.65;;;;;;;-143.21;89.54;71846.13;5014591;28;20220;-84
2023/09/21 05:39:38;;;;;;;32.15;15.32;;;;;;;-143.21;89.93;71844.16;5023014;28;20203;-84
2023/09/21 05:42:05;;;;;;;40.25;15.90;;;;;;;-143.21;90.08;71836.22;5023064;28;20293;-84
2023/09/21 05:44:32;;;;;;;31.63;15.40;;;;;;;-143.21;89.90;71828.28;5019647;28;20205;-84
2023/09/21 05:46:59;;;;;;;36.97;15.23;;;;;;;-143.21;89.01;71814.41;5025281;28;20210;-85
2023/09/21 05:49:27;;;;;;;32.65;15.05;;;;;;;-143.21;87.42;71808.44;5019195;28;20202;-84
2023/09/21 05:51:56;;;;;;;36.25;15.93;;;;;;;-143.21;87.03;71802.50;5023287;28;20203;-84
2023/09/21 05:54:24;;;;;;;33.92;16.13;;;;;;;-143.21;86.54;71798.53;5019870;28;20759;-84
2023/09/21 05:56:52;;;;;;;34.22;15.43;;;;;;;-143.21;86.30;71788.63;5026650;28;20218;-84
2023/09/21 05:59:19;;;;;;;35.25;15.30;;;;;;;-143.21;86.38;71796.56;5020290;28;20214;-85
2023/09/21 06:01:48;;;;;;;30.45;14.88;;;;;;;-143.21;86.61;71794.56;5024036;28;20207;-86
2023/09/21 06:04:16;;;;;;;34.17;14.80;;;;;;;-143.21;86.22;71790.59;5021632;28;20205;-87
2023/09/21 06:06:43;;;;;;;25.33;14.10;;;;;;;-143.21;85.60;71790.59;5019797;28;20662;-86
2023/09/21 06:09:12;;;;;;;30.58;15.45;;;;;;;-143.21;85.07;71774.75;5018764;28;20210;-87
2023/09/21 06:11:40;;;;;;;32.67;15.85;;;;;;;-143.21;83.91;71768.78;5026493;28;20203;-86
2023/09/21 06:14:07;;;;;;;30.02;15.15;;;;;;;-143.21;83.49;71764.81;5020985;28;20293;-87
2023/09/21 06:16:34;;;;;;;31.38;14.57;;;;;;;-143.21;83.28;71760.88;5021146;28;20223;-87
2023/09/21 06:19:01;;;;;;;31.92;15.25;;;;;;;-143.21;83.38;71770.78;5016029;28;20213;-86
2023/09/21 06:21:30;;;;;;;36.20;14.70;;;;;;;-143.21;83.62;71778.72;5023768;28;20214;-85
2023/09/21 06:23:57;;;;;;;37.03;14.65;;;;;;;-143.21;83.30;71782.69;5022684;28;20560;-86
2023/09/21 06:26:24;;;;;;;39.20;15.00;;;;;;;-143.21;83.10;71780.69;5029364;28;20646;-83
2023/09/21 06:28:52;;;;;;;31.15;15.15;;;;;;;-143.21;83.36;71772.75;5022741;28;20199;-84
2023/09/21 06:31:21;;;;;;;30.85;15.60;;;;;;;-143.21;83.81;71758.88;5019889;28;20203;-85
2023/09/21 06:33:48;;;;;;;34.30;16.58;;;;;;;-143.21;84.27;71750.94;5026343;28;20379;-84
2023/09/21 06:36:20;;;;;;;28.25;14.95;;;;;;;-143.21;84.24;71745.00;5014931;28;20223;-84
2023/09/21 06:38:47;;;;;;;32.38;14.93;;;;;;;-143.21;84.14;71741.03;5021189;28;20198;-84
2023/09/21 06:41:14;;;;;;;34.58;15.98;;;;;;;-143.21;83.56;71729.13;5024435;28;20207;-84
2023/09/21 06:43:42;;;;;;;29.58;14.93;;;;;;;-143.21;82.15;71713.28;5016474;28;20207;-85
2023/09/21 06:46:10;;;;;;;32.17;14.88;;;;;;;-143.21;82.14;71709.31;5022700;28;20281;-84
2023/09/21 06:48:38;;;;;;;26.98;14.43;;;;;;;-143.21;81.74;71705.34;5019451;28;20215;-84
2023/09/21 06:51:07;;;;;;;29.27;14.73;;;;;;;-143.21;81.86;71699.41;5022280;28;20206;-84
2023/09/21 06:53:34;;;;;;;31.40;15.20;;;;;;;-143.21;81.84;71693.44;5012114;28;20290;-84
2023/09/21 06:56:01;;;;;;;28.80;15.05;;;;;;;-143.21;81.23;71701.38;5015663;28;20678;-84
2023/09/21 06:58:30;;;;;;;29.58;15.27;;;;;;;-143.21;81.02;71705.34;5022348;28;20205;-85
2023/09/21 07:00:57;;;;;;;38.60;16.52;;;;;;;-143.21;81.36;71705.34;5019536;28;20234;-84
2023/09/21 07:03:25;;;;;;;37.28;15.82;;;;;;;-143.21;81.38;71705.34;5020838;28;20702;-84
2023/09/21 07:05:52;;;;;;;30.67;15.85;;;;;;;-143.21;81.46;71709.31;5029920;28;20206;-84
2023/09/21 07:08:20;;;;;;;35.17;15.98;;;;;;;-143.21;81.76;71711.28;5019453;28;20205;-85
2023/09/21 07:10:48;;;;;;;35.17;16.25;;;;;;;-143.21;82.26;71717.25;5016377;28;20613;-84
2023/09/21 07:13:18;;;;;;;30.15;14.73;;;;;;;-143.21;82.85;71709.31;5017819;28;20195;-83
2023/09/21 07:15:45;;;;;;;36.22;16.58;;;;;;;-143.21;82.93;71701.38;5018612;28;20254;-83
2023/09/21 07:18:12;;;;;;;32.90;15.73;;;;;;;-143.21;82.47;71693.44;5025193;28;20211;-84
2023/09/21 07:20:40;;;;;;;39.47;15.73;;;;;;;-143.21;81.76;71679.56;5028012;28;20198;-87
2023/09/21 07:23:07;;;;;;;32.88;14.93;;;;;;;-143.21;80.57;71665.69;5028440;28;20202;-85
2023/09/21 07:25:34;;;;;;;31.55;15.70;;;;;;;-143.21;80.30;71651.81;5023836;28;20229;-85
2023/09/21 07:28:01;;;;;;;39.50;15.48;;;;;;;-143.21;78.23;71633.97;5023135;28;20195;-83
2023/09/21 07:30:28;;;;;;;29.85;16.23;;;;;;;-143.21;77.36;71624.06;5016498;28;20249;-84
2023/09/21 07:32:56;;;;;;;36.40;16.00;;;;;;;-143.21;76.50;71606.22;5016854;28;20200;-84
2023/09/21 07:35:23;;;;;;;39.90;16.13;;;;;;;-143.21;75.85;71600.25;5019469;28;20214;-84
2023/09/21 07:37:52;;;;;;;38.08;15.48;;;;;;;-143.21;76.35;71598.28;5015393;28;20191;-85
2023/09/21 07:40:19;;;;;;;34.75;15.88;;;;;;;-143.21;76.68;71594.31;5015502;28;20206;-84
2023/09/21 07:42:48;;;;;;;37.28;16.23;;;;;;;-143.21;76.41;71582.41;5021733;28;20198;-85
2023/09/21 07:45:15;;;;;;;27.75;14.75;;;;;;;-143.21;75.12;71568.53;5021988;28;20287;-84
2023/09/21 07:47:43;;;;;;;25.05;13.65;;;;;;;-143.21;73.74;71556.63;5018092;28;20194;-83
2023/09/21 07:50:10;;;;;;;24.35;12.35;;;;;;;-143.21;71.82;71536.81;5023508;28;20210;-84
2023/09/21 07:52:37;;;;;;;22.50;11.55;;;;;;;-143.21;70.10;71518.97;5025851;28;20194;-83
2023/09/21 07:55:15;;;;;;;27.30;12.43;;;;;;;-143.21;69.69;71509.06;5021450;28;20750;-84
2023/09/21 07:57:42;;;;;;;19.30;11.13;;;;;;;-143.21;69.51;71503.09;5016973;28;20206;-83
2023/09/21 08:00:10;;;;;;;24.58;11.60;;;;;;;-143.21;69.74;71501.13;5022228;28;20214;-85
2023/09/21 08:02:37;;;;;;;24.33;11.52;;;;;;;-143.21;69.47;71495.19;5029636;28;20218;-86
2023/09/21 08:05:05;;;;;;;23.25;11.25;;;;;;;-143.21;68.91;71491.22;5025097;28;20211;-86
2023/09/21 08:07:33;;;;;;;27.13;11.38;;;;;;;-143.21;69.16;71495.19;5027151;28;20187;-86
2023/09/21 08:10:01;;;;;;;24.60;11.60;;;;;;;-143.21;68.79;71491.22;5029112;28;20601;-88
2023/09/21 08:12:30;;;;;;;19.38;9.80;;;;;;;-143.21;67.63;71489.22;5023366;28;20203;-85
2023/09/21 08:14:57;;;;;;;27.75;10.50;;;;;;;-143.21;67.56;71481.28;5020958;28;20924;-87
2023/09/21 08:17:24;;;;;;;20.95;9.55;;;;;;;-143.21;67.15;71485.25;5020641;28;20673;-88
2023/09/21 08:19:51;;;;;;;19.70;9.30;;;;;;;-143.21;66.39;71493.19;5022173;28;20595;-87
2023/09/21 08:22:19;;;;;;;13.73;9.18;;;;;;;-143.21;66.61;71479.31;5022800;28;20207;-88
2023/09/21 08:24:46;;;;;;;17.77;8.35;;;;;;;-143.21;65.45;71477.34;5022246;28;20591;-87
2023/09/21 08:27:13;;;;;;;16.80;8.27;;;;;;;-143.21;65.44;71471.38;5018428;28;20216;-88
2023/09/21 08:29:44;;;;;;;15.57;8.18;;;;;;;-143.21;65.56;71461.47;5020308;28;20868;-89
2023/09/21 08:32:12;;;;;;;15.25;8.25;;;;;;;-143.21;65.17;71455.53;5028726;28;20211;-89
2023/09/21 08:34:40;;;;;;;15.73;8.18;;;;;;;-143.21;65.97;71457.50;5024424;28;20293;-90
2023/09/21 08:37:10;;;;;;;13.65;8.05;;;;;;;-143.21;64.96;71465.44;5025530;28;20234;-89
2023/09/21 08:39:39;;;;;;;14.20;7.30;;;;;;;-143.21;64.99;71469.41;5016426;28;20211;-90
2023/09/21 08:42:13;;;;;;;13.35;7.70;;;;;;;-143.21;64.60;71475.34;5024853;28;20202;-89
2023/09/21 08:44:43;;;;;;;13.50;8.20;;;;;;;-143.21;64.12;71483.28;5022107;28;20211;-89
2023/09/21 08:47:15;;;;;;;17.48;7.95;;;;;;;-143.21;63.75;71481.28;5027042;28;20313;-90
2023/09/21 08:49:45;;;;;;;16.48;7.20;;;;;;;-143.21;65.21;71491.22;5024003;28;20215;-87
2023/09/21 08:52:19;;;;;;;14.52;7.82;;;;;;;-143.21;65.82;71487.25;5028653;28;20222;-84
2023/09/21 08:54:48;;;;;;;18.08;7.57;;;;;;;-143.21;66.12;71481.28;5024307;28;20293;-90
2023/09/21 08:57:21;;;;;;;15.38;7.90;;;;;;;-143.21;65.69;71489.22;5023628;28;20226;-87
2023/09/21 08:59:50;;;;;;;19.08;8.27;;;;;;;-143.21;66.59;71481.28;5024812;28;20582;-87
2023/09/21 09:02:18;;;;;;;19.75;7.90;;;;;;;-143.21;65.60;71479.31;5025271;28;20227;-90
2023/09/21 09:04:46;;;;;;;13.73;7.20;;;;;;;-143.21;65.14;71471.38;5024953;28;20215;-90
2023/09/21 09:07:13;;;;;;;14.93;7.85;;;;;;;-143.21;66.11;71457.50;5020999;28;20203;-83
2023/09/21 09:09:40;;;;;;;17.15;8.43;;;;;;;-143.21;67.01;71445.59;5030853;28;20579;-84
2023/09/21 09:12:22;;;;;;;15.23;7.78;;;;;;;-143.21;66.91;71439.66;5023324;28;20210;-81
2023/09/21 09:14:49;;;;;;;17.98;8.82;;;;;;;-143.21;67.11;71429.75;5022842;28;20685;-81
2023/09/21 09:17:16;;;;;;;16.63;9.15;;;;;;;-143.21;65.70;71435.69;5020091;28;20680;-81
2023/09/21 09:19:46;;;;;;;15.88;8.43;;;;;;;-143.21;65.11;71431.72;5017907;28;20214;-81
2023/09/21 09:22:15;;;;;;;16.67;8.80;;;;;;;-143.21;65.02;71427.75;5026067;28;20222;-81
2023/09/21 09:24:42;;;;;;;19.27;8.55;;;;;;;-143.21;64.20;71419.84;5022820;28;20207;-81
2023/09/21 09:27:09;;;;;;;21.17;9.40;;;;;;;-143.21;64.46;71421.81;5023589;28;20627;-81
2023/09/21 09:29:48;;;;;;;17.58;9.13;;;;;;;-143.21;64.45;71415.88;5021542;28;20210;-81
2023/09/21 09:32:18;;;;;;;19.75;9.27;;;;;;;-143.21;65.08;71419.84;5023760;28;20261;-81
2023/09/21 09:34:47;;;;;;;14.95;8.73;;;;;;;-143.21;65.59;71417.84;5020138;28;20693;-82
2023/09/21 11:34:00;;;;;;;13.73;5.85;;;;;;;-143.21;43.98;70373.16;5125380;27;20574;-81
2023/09/21 11:36:29;;;;;;;14.50;6.45;;;;;;;-143.21;43.04;70325.59;5123693;28;20200;-81
2023/09/21 11:38:56;;;;;;;18.40;6.25;;;;;;;-143.21;42.91;70276.03;5124335;27;20693;-82
2023/09/21 11:41:26;;;;;;;11.75;6.15;;;;;;;-143.21;42.01;70262.19;5125707;27;20219;-83
2023/09/21 11:43:54;;;;;;;14.40;6.43;;;;;;;-143.21;42.70;70305.78;5122762;28;20661;-82
2023/09/21 11:46:22;;;;;;;8.50;5.93;;;;;;;-143.21;43.40;70357.31;5121907;27;20195;-83
2023/09/21 11:48:51;;;;;;;11.75;6.15;;;;;;;-143.21;44.27;70408.84;5121260;27;20632;-83
2023/09/21 11:51:29;;;;;;;12.75;6.75;;;;;;;-143.21;44.95;70456.41;5124901;27;20211;-83
2023/09/21 11:54:07;;;;;;;16.27;6.85;;;;;;;-143.21;45.26;70442.53;5120642;27;20198;-83
2023/09/21 11:57:11;;;;;;;25.17;7.25;;;;;;;-143.21;44.54;70414.78;5125650;27;20290;-83
2023/09/21 11:59:44;;;;;;;23.48;6.68;;;;;;;-143.21;44.32;70424.69;5126603;28;20200;-83
2023/09/21 12:02:14;;;;;;;12.95;6.50;;;;;;;-143.21;45.17;70438.56;5126966;27;20608;-84
2023/09/21 12:04:45;;;;;;;11.27;6.15;;;;;;;-143.21;44.74;70410.81;5124981;27;20235;-83
2023/09/21 12:07:14;;;;;;;13.40;6.38;;;;;;;-143.21;43.99;70357.31;5125443;28;20207;-83
2023/09/21 12:09:41;;;;;;;12.88;6.22;;;;;;;-143.21;43.60;70323.63;5125471;27;20256;-84
2023/09/21 12:12:26;;;;;;;15.20;6.13;;;;;;;-143.21;44.01;70317.66;5125856;27;20641;-83
2023/09/21 12:15:00;;;;;;;14.95;6.72;;;;;;;-143.21;43.64;70305.78;5125890;28;20409;-84
2023/09/21 12:17:29;;;;;;;16.95;6.82;;;;;;;-143.21;43.56;70285.97;5125442;27;20199;-84
2023/09/21 12:19:59;;;;;;;11.13;6.78;;;;;;;-143.21;43.41;70295.88;5125962;27;20199;-83
2023/09/21 12:22:29;;;;;;;13.50;6.47;;;;;;;-143.21;43.58;70293.88;5124680;27;20306;-83
2023/09/21 12:28:01;;;;;;;13.02;5.63;;;;;;;-143.21;43.38;70301.81;5120592;27;20598;-81
2023/09/21 12:30:33;;;;;;;9.15;5.90;;;;;;;-143.21;42.93;70291.91;5122860;27;20727;-83
2023/09/21 12:33:02;;;;;;;12.13;6.25;;;;;;;-143.21;43.68;70317.66;5122343;27;20277;-83
2023/09/21 12:35:31;;;;;;;11.82;6.28;;;;;;;-143.21;44.85;70381.09;5115111;28;20261;-83
2023/09/21 12:37:58;;;;;;;10.50;6.50;;;;;;;-143.21;44.46;70414.78;5114900;28;20192;-82
2023/09/21 12:40:25;;;;;;;20.27;7.32;;;;;;;-143.21;45.61;70408.84;5114803;28;20765;-82
2023/09/21 12:42:52;;;;;;;33.83;7.78;;;;;;;-143.21;45.25;70391.00;5114911;28;20216;-83
2023/09/21 12:45:20;;;;;;;13.18;6.40;;;;;;;-143.21;44.89;70394.97;5114831;28;20242;-81
2023/09/21 12:47:47;;;;;;;10.98;6.25;;;;;;;-143.21;44.46;70361.28;5114808;28;20199;-81
2023/09/21 12:50:15;;;;;;;55.30;8.32;;;;;;;-143.21;44.29;70345.41;5114482;28;20249;-81
2023/09/21 12:52:44;;;;;;;53.85;8.38;;;;;;;-143.21;44.32;70335.50;5114485;28;20572;-80
2023/09/21 12:55:11;;;;;;;37.85;7.80;;;;;;;-143.21;44.32;70323.63;5093978;28;20671;-81
2023/09/21 12:57:59;;;;;;;;;;;;;;;;;;;;;
2023/09/21 13:00:29;;;;;;;13.30;6.68;;;;;;;-143.21;44.88;70367.22;5108748;28;20688;-86
2023/09/21 13:02:55;;;;;;;24.55;6.63;;;;;;;-143.21;45.70;70398.94;5115279;28;20220;-84
2023/09/21 13:05:25;;;;;;;13.82;6.22;;;;;;;-143.21;45.93;70434.59;5114833;28;20223;-83
2023/09/21 13:07:53;;;;;;;17.75;6.75;;;;;;;-143.21;46.27;70454.44;5112276;28;20283;-83
2023/09/21 13:10:23;;;;;;;41.83;8.13;;;;;;;-143.21;46.74;70482.19;5113325;28;20196;-83
2023/09/21 13:12:51;;;;;;;23.45;7.43;;;;;;;-143.21;46.67;70484.16;5114458;28;20257;-84